Eldon, Washington
Current Conditions -  °F | °C
As of 6:27 AM on Sunday 21 Dec 2014 (Local Time) from KSHN Reporting Station
Overcast Overcast  
Wind Chill: 50°   Ceiling: 1800
Heat Index: 50°   Visibility: 10mi
Dew Point: 48°   Wind: 16mph
Humidity: 93%   Direction: 230°SW
Pressure: 29.79"   Gusts: 23mph
Location:  47.5561°N, 123.25°W
Report Text: KSHN 211427Z AUTO 23014G20KT 10SM BKN018 BKN026 OVC034 10/09 A2979 RMK AO2 RAE1359 P0000 T01000089
Loading
Personal Weather Stations






























Interactive Weather Map New forecast layout! Learn more

10-Day Weather Forecast

Advertisements
Track Severe Weather on mobile